Time;durP1;ratioP1;P1;durP2;ratioP2;P2;SDS_P1;SDS_P2;PMS_P1;PMS_P2;Temp;Humidity;BMP_temperature;BMP_pressure;BME280_temperature;BME280_humidity;BME280_pressure;Samples;Min_cycle;Max_cycle;Signal;HPM_P1;HPM_P2
2023/05/02 00:01:13;;;;;;;35.38;24.42;;;13.10;99.90;;;13.54;96.94;101971.56;5112692;28;20039;-72
2023/05/02 00:03:42;;;;;;;32.83;23.45;;;13.20;99.90;;;13.71;96.67;101974.22;5112616;28;20044;-72
2023/05/02 00:06:12;;;;;;;38.90;24.83;;;13.30;99.90;;;13.48;97.64;101979.53;5112742;28;20092;-72
2023/05/02 00:08:40;;;;;;;30.27;23.17;;;13.10;99.90;;;13.55;97.34;101981.31;5108805;28;20048;-72
2023/05/02 00:11:09;;;;;;;28.65;22.17;;;13.20;99.90;;;13.56;96.77;101977.78;5112258;28;20063;-72
2023/05/02 00:13:37;;;;;;;29.88;23.42;;;13.20;99.90;;;13.85;96.32;101979.53;5086009;28;20499;-72
2023/05/02 00:16:06;;;;;;;26.42;19.52;;;13.40;99.90;;;13.87;95.52;101977.78;5112488;28;20481;-72
2023/05/02 00:18:35;;;;;;;26.17;17.52;;;13.50;99.90;;;13.76;94.52;101976.91;5112162;28;20052;-72
2023/05/02 00:21:03;;;;;;;24.20;14.73;;;13.50;99.90;;;13.91;94.69;101968.91;5112110;28;20166;-72
2023/05/02 00:23:33;;;;;;;22.67;13.93;;;13.50;99.90;;;14.01;93.77;101976.00;5112456;28;20131;-72
2023/05/02 00:26:01;;;;;;;18.58;11.98;;;13.60;99.90;;;14.03;92.90;101976.91;5112055;28;20044;-72
2023/05/02 00:28:30;;;;;;;20.73;11.18;;;13.70;99.90;;;13.96;92.81;101972.44;5111973;28;20070;-72
2023/05/02 00:30:59;;;;;;;17.42;11.88;;;13.60;99.90;;;13.72;92.07;101911.31;5090632;28;20524;-72
2023/05/02 00:33:27;;;;;;;17.52;10.75;;;13.80;99.90;;;13.78;92.67;101980.44;5108611;28;20036;-72
2023/05/02 00:35:56;;;;;;;16.55;10.30;;;13.50;99.90;;;13.90;92.94;101978.66;5112264;28;20051;-72
2023/05/02 00:38:24;;;;;;;15.23;10.48;;;13.60;99.90;;;14.06;92.20;101983.09;5112145;28;20054;-72
2023/05/02 00:40:54;;;;;;;18.92;9.82;;;13.70;99.90;;;14.09;91.88;101976.88;5112216;28;20114;-71
2023/05/02 00:43:22;;;;;;;20.42;10.52;;;13.70;99.90;;;14.18;91.50;101988.41;5111997;28;20055;-72
2023/05/02 00:45:51;;;;;;;14.48;10.25;;;13.90;99.90;;;13.87;92.54;101970.69;5112027;28;20078;-72
2023/05/02 00:48:20;;;;;;;16.23;10.93;;;13.60;99.90;;;14.11;92.27;101986.63;5112082;28;20040;-72
2023/05/02 00:50:49;;;;;;;15.73;9.52;;;13.80;99.90;;;13.84;91.81;101975.13;5112310;28;20040;-72
2023/05/02 00:53:17;;;;;;;19.60;9.95;;;13.70;99.90;;;13.36;94.15;101952.03;5113698;28;20040;-72
2023/05/02 00:55:48;;;;;;;14.40;8.52;;;13.30;99.90;;;13.53;93.63;101980.41;5111455;28;20087;-72
2023/05/02 00:58:19;;;;;;;;;;;13.30;99.90;;;13.47;94.13;101985.72;5086546;28;20125;-72
2023/05/02 01:01:03;;;;;;;13.40;7.70;;;13.20;99.90;;;13.60;93.93;101981.31;5116039;28;19920;-72
2023/05/02 01:03:42;;;;;;;12.98;7.68;;;13.20;99.90;;;13.72;93.33;101983.09;5115857;28;20048;-71
2023/05/02 01:06:28;;;;;;;15.20;8.07;;;13.40;99.90;;;13.75;92.84;101981.31;5078803;28;20078;-72
2023/05/02 01:09:16;;;;;;;15.93;7.88;;;13.50;99.90;;;13.65;92.40;101986.63;5085882;28;20490;-72
2023/05/02 01:11:52;;;;;;;18.42;7.45;;;13.40;99.90;;;13.52;92.65;101999.03;5115143;28;20040;-72
2023/05/02 01:14:24;;;;;;;17.40;8.45;;;13.30;99.90;;;13.47;93.25;101995.50;5112804;28;20040;-72
2023/05/02 01:16:53;;;;;;;29.30;8.95;;;13.30;99.90;;;13.62;93.27;102002.59;5097296;28;20524;-72
2023/05/02 01:19:29;;;;;;;22.93;8.00;;;13.30;99.90;;;13.64;92.56;102006.13;5115527;28;20047;-73
2023/05/02 01:21:59;;;;;;;18.30;8.07;;;13.40;99.90;;;13.64;92.38;102011.44;5115617;28;20044;-72
2023/05/02 01:24:36;;;;;;;18.02;7.22;;;13.40;99.90;;;13.68;92.24;102010.56;5085237;28;20044;-72
2023/05/02 01:27:17;;;;;;;13.82;7.03;;;13.40;99.90;;;13.65;91.92;102007.88;5115411;28;20046;-72
2023/05/02 01:29:51;;;;;;;17.85;7.75;;;13.40;99.90;;;13.67;91.72;102008.78;5076989;28;20125;-72
2023/05/02 01:32:22;;;;;;;18.08;6.82;;;13.40;99.90;;;13.77;91.01;102016.78;5115324;28;20047;-72
2023/05/02 01:34:52;;;;;;;13.93;6.75;;;13.50;99.90;;;13.64;90.55;102016.75;5088942;28;20047;-72
2023/05/02 01:37:24;;;;;;;11.20;6.10;;;13.40;99.90;;;13.67;90.36;102020.31;5115328;28;20047;-72
2023/05/02 01:39:55;;;;;;;13.55;6.97;;;13.40;99.90;;;13.75;90.11;102028.28;5115206;28;20054;-72
2023/05/02 01:42:25;;;;;;;15.75;6.57;;;13.50;99.90;;;13.68;89.40;102029.19;5111287;28;20046;-72
2023/05/02 01:44:58;;;;;;;17.88;7.03;;;13.50;99.90;;;13.72;89.13;102029.19;5097211;28;20048;-72
2023/05/02 01:47:29;;;;;;;22.45;7.53;;;13.50;99.90;;;13.46;89.54;102031.81;5115484;28;20055;-72
2023/05/02 01:49:59;;;;;;;28.13;7.63;;;13.30;99.90;;;13.52;90.09;102030.91;5115298;28;20040;-72
2023/05/02 01:52:29;;;;;;;23.67;7.22;;;13.30;99.90;;;13.44;89.73;102038.88;5115573;28;20075;-72
2023/05/02 01:54:59;;;;;;;28.73;7.60;;;13.20;99.90;;;13.44;90.13;102038.88;5093542;28;20075;-71
2023/05/02 01:57:28;;;;;;;23.17;7.88;;;13.20;99.90;;;13.51;89.74;102043.31;5085203;28;20086;-72
2023/05/02 01:59:59;;;;;;;24.80;7.22;;;13.20;99.90;;;13.43;89.64;102041.53;5097103;28;20121;-72
2023/05/02 02:02:30;;;;;;;17.17;6.47;;;13.20;99.90;;;13.36;89.13;102050.38;5115265;28;20458;-72
2023/05/02 02:04:59;;;;;;;16.97;6.50;;;13.10;99.90;;;13.43;88.83;102044.19;5114372;28;20492;-72
2023/05/02 02:07:27;;;;;;;16.15;7.05;;;13.10;99.90;;;13.50;88.32;102049.53;5088679;28;20301;-72
2023/05/02 02:09:55;;;;;;;14.40;6.68;;;13.30;99.90;;;13.53;87.87;102056.59;5096793;28;20116;-72
2023/05/02 02:12:27;;;;;;;14.73;6.00;;;13.30;99.90;;;13.49;86.81;102074.31;5088630;28;20046;-72
2023/05/02 02:15:00;;;;;;;14.18;5.90;;;13.20;99.90;;;13.50;86.13;102068.16;5111210;28;20043;-72
2023/05/02 02:17:37;;;;;;;10.20;5.60;;;13.30;99.90;;;13.55;85.76;102079.66;5115079;28;20082;-72
2023/05/02 02:20:10;;;;;;;13.43;5.90;;;13.30;99.90;;;13.67;85.41;102078.81;5114941;28;20043;-72
2023/05/02 02:22:40;;;;;;;13.40;5.90;;;13.40;99.90;;;13.74;85.13;102077.97;5115067;28;20095;-72
2023/05/02 02:25:13;;;;;;;17.73;6.55;;;13.40;99.90;;;13.71;84.53;102080.59;5110928;28;20044;-72
2023/05/02 02:27:43;;;;;;;12.35;5.88;;;13.40;99.90;;;13.74;84.29;102067.31;5114852;28;20143;-72
2023/05/02 02:30:13;;;;;;;16.25;6.00;;;13.50;99.90;;;13.76;83.98;102072.63;5115154;28;20127;-72
2023/05/02 02:32:41;;;;;;;14.68;6.15;;;13.50;99.90;;;13.76;83.99;102081.50;5096374;28;20040;-72
2023/05/02 02:35:11;;;;;;;14.00;5.70;;;13.50;99.90;;;13.67;82.55;102077.91;5114364;28;20100;-72
2023/05/02 02:37:46;;;;;;;15.13;5.63;;;13.40;99.90;;;13.62;81.28;102067.28;5114421;28;20040;-72
2023/05/02 02:40:23;;;;;;;12.18;5.22;;;13.40;99.90;;;13.69;80.67;102079.69;5111227;28;20286;-72
2023/05/02 02:43:02;;;;;;;13.35;5.45;;;13.40;99.90;;;13.66;80.70;102087.69;5114592;28;20036;-72
2023/05/02 02:45:39;;;;;;;13.40;5.90;;;13.40;99.90;;;13.67;80.54;102081.47;5110478;28;20047;-72
2023/05/02 02:48:19;;;;;;;13.05;5.28;;;13.40;99.90;;;13.71;79.74;102079.69;5077261;28;20143;-72
2023/05/02 02:50:56;;;;;;;;;;;13.50;99.90;;;13.80;78.99;102096.56;5114851;28;20043;-72
2023/05/02 02:53:34;;;;;;;18.10;5.63;;;13.60;99.90;;;13.60;78.91;102087.66;5111148;28;19965;-72
2023/05/02 02:56:06;;;;;;;13.02;6.15;;;13.50;99.90;;;13.71;79.05;102099.22;5095744;28;20047;-72
2023/05/02 02:58:53;;;;;;;10.90;5.60;;;13.40;99.90;;;13.67;78.93;102107.16;5114249;28;20046;-72
2023/05/02 03:01:27;;;;;;;14.00;5.30;;;13.40;99.90;;;13.62;78.64;102100.97;5112700;28;20040;-72
2023/05/02 03:03:57;;;;;;;15.68;5.47;;;13.40;99.90;;;13.65;78.08;102106.25;5114142;28;20039;-72
2023/05/02 03:06:26;;;;;;;14.00;5.13;;;13.50;99.90;;;13.72;78.17;102121.38;5110011;28;20031;-72
2023/05/02 03:08:56;;;;;;;10.45;5.15;;;13.50;99.90;;;13.67;77.37;102125.78;5095673;28;20036;-71
2023/05/02 03:11:29;;;;;;;13.60;5.25;;;13.40;99.90;;;13.63;76.87;102124.03;5087545;28;20054;-72
2023/05/02 03:13:58;;;;;;;14.88;6.07;;;13.30;99.90;;;13.72;76.53;102132.00;5095517;28;20048;-72
2023/05/02 03:16:37;;;;;;;13.13;5.25;;;13.40;99.90;;;13.53;76.09;102131.94;5094303;28;20071;-72
2023/05/02 03:19:08;;;;;;;7.70;4.38;;;13.30;99.90;;;13.47;75.63;102133.72;5084351;28;20048;-72
2023/05/02 03:21:37;;;;;;;8.73;5.45;;;13.20;99.90;;;13.52;75.65;102132.84;5095506;28;20039;-72
2023/05/02 03:24:15;;;;;;;14.38;5.45;;;13.20;99.90;;;13.15;75.17;102133.53;5095520;28;20445;-72
2023/05/02 03:26:46;;;;;;;9.27;4.38;;;13.10;99.90;;;13.32;76.06;102137.16;5083398;28;20047;-72
2023/05/02 03:29:17;;;;;;;15.68;5.25;;;13.10;99.90;;;13.41;75.97;102131.03;5089054;28;20069;-72
2023/05/02 03:31:47;;;;;;;14.68;5.22;;;13.10;99.90;;;13.44;75.79;102145.22;5087170;28;20572;-71
2023/05/02 03:34:16;;;;;;;10.27;5.03;;;13.20;99.90;;;13.41;75.89;102146.97;5095360;28;20056;-71
2023/05/02 03:36:46;;;;;;;;;;;13.10;99.90;;;13.56;75.54;102144.38;5087627;28;20492;-72
2023/05/02 03:39:15;;;;;;;10.68;5.40;;;13.30;99.90;;;13.49;75.44;102158.53;5095005;28;19919;-71
2023/05/02 03:41:45;;;;;;;10.77;5.45;;;13.20;99.90;;;13.40;75.44;102148.72;5087032;28;20058;-72
2023/05/02 03:44:17;;;;;;;17.58;5.38;;;13.20;99.90;;;13.45;75.43;102148.75;5095117;28;20551;-72
2023/05/02 03:46:48;;;;;;;17.45;6.07;;;13.20;99.90;;;13.54;75.33;102157.66;5095114;28;20382;-72
2023/05/02 03:49:18;;;;;;;14.57;5.30;;;13.20;99.90;;;13.50;74.99;102163.84;5113304;28;20425;-72
2023/05/02 03:51:48;;;;;;;14.95;5.82;;;13.20;99.90;;;13.46;74.95;102161.16;5095125;28;20646;-72
2023/05/02 03:54:22;;;;;;;18.17;5.85;;;13.20;99.90;;;13.46;74.55;102175.34;5086925;28;20040;-72
2023/05/02 03:56:51;;;;;;;10.00;4.90;;;13.20;99.90;;;13.51;74.41;102178.91;5094389;28;20066;-71
2023/05/02 03:59:26;;;;;;;9.05;5.30;;;13.20;99.90;;;13.57;74.10;102178.94;5083525;28;20401;-72
2023/05/02 04:01:56;;;;;;;14.30;4.95;;;13.20;99.90;;;13.58;74.11;102180.72;5086860;28;20046;-72
2023/05/02 04:04:35;;;;;;;12.48;5.13;;;13.30;99.90;;;13.54;73.63;102188.66;5094675;28;20130;-71
2023/05/02 04:07:06;;;;;;;9.70;5.22;;;13.20;99.90;;;13.56;73.00;102189.56;5094816;28;20097;-72
2023/05/02 04:09:35;;;;;;;9.40;5.18;;;13.30;99.90;;;13.55;72.80;102193.97;5086339;28;20044;-71
2023/05/02 04:12:08;;;;;;;10.68;5.20;;;13.30;99.90;;;13.55;72.63;102195.75;5094832;28;20397;-71
2023/05/02 04:14:40;;;;;;;12.55;5.30;;;13.30;99.90;;;13.58;72.52;102191.34;5094798;28;20047;-72
2023/05/02 04:17:10;;;;;;;12.05;4.97;;;13.20;99.90;;;13.63;72.16;102196.66;5094741;28;20044;-72
2023/05/02 04:19:48;;;;;;;11.07;5.13;;;13.30;99.90;;;13.66;71.72;102196.72;5083234;28;20059;-72
2023/05/02 04:22:17;;;;;;;9.80;5.15;;;13.40;99.90;;;13.67;71.83;102197.56;5094653;28;20052;-71
2023/05/02 04:25:15;;;;;;;10.75;5.20;;;13.40;99.90;;;13.70;71.80;102205.56;5096763;28;20047;-71
2023/05/02 04:27:44;;;;;;;12.18;5.50;;;13.30;99.90;;;13.74;71.99;102218.00;5113692;28;20477;-71
2023/05/02 04:30:16;;;;;;;10.88;5.03;;;13.40;99.90;;;13.77;71.33;102218.00;5098462;28;20096;-72
2023/05/02 04:32:53;;;;;;;12.48;5.82;;;13.50;99.90;;;13.73;71.60;102205.56;5098736;28;20484;-72
2023/05/02 04:35:23;;;;;;;12.98;5.45;;;13.40;99.90;;;13.66;71.70;102211.75;5098789;28;20257;-72
2023/05/02 04:37:51;;;;;;;13.35;5.97;;;13.40;99.90;;;13.66;71.74;102219.75;5090538;28;20036;-72
2023/05/02 04:40:19;;;;;;;16.83;5.50;;;13.30;99.90;;;13.70;71.16;102225.09;5098530;28;20070;-71
2023/05/02 04:42:52;;;;;;;13.18;6.07;;;13.40;99.90;;;13.63;71.53;102225.06;5090412;28;20393;-72
2023/05/02 04:45:23;;;;;;;12.43;5.55;;;13.40;99.90;;;13.58;71.34;102233.91;5098548;28;20086;-72
2023/05/02 04:47:53;;;;;;;16.85;5.40;;;13.30;99.90;;;13.53;72.01;102221.44;5116688;28;20105;-72
2023/05/02 04:50:22;;;;;;;15.35;5.95;;;13.30;99.90;;;13.62;71.68;102240.13;5112965;28;20766;-72
2023/05/02 04:52:50;;;;;;;14.75;5.47;;;13.30;99.90;;;13.59;71.80;102243.63;5116438;28;20036;-72
2023/05/02 04:55:20;;;;;;;17.45;5.78;;;13.30;99.90;;;13.47;71.45;102238.25;5098319;28;20836;-72
2023/05/02 04:57:48;;;;;;;14.63;5.43;;;13.20;99.90;;;13.53;71.58;102240.94;5116322;28;20055;-72
2023/05/02 05:00:18;;;;;;;14.85;5.97;;;13.20;99.90;;;13.51;71.38;102244.50;5098195;28;20406;-72
2023/05/02 05:02:46;;;;;;;19.70;6.10;;;13.20;99.90;;;13.54;71.15;102247.16;5089919;28;20545;-72
2023/05/02 05:05:16;;;;;;;16.02;6.15;;;13.20;99.90;;;13.40;70.81;102251.50;5097961;28;20593;-72
2023/05/02 05:07:45;;;;;;;19.85;6.43;;;13.10;99.90;;;13.43;70.76;102254.19;5116449;28;20039;-71
2023/05/02 05:10:15;;;;;;;15.40;5.93;;;13.20;99.90;;;13.47;71.03;102256.84;5090744;28;20127;-71
2023/05/02 05:12:48;;;;;;;18.77;6.40;;;13.20;99.90;;;13.42;71.18;102253.28;5097981;28;20404;-72
2023/05/02 05:15:17;;;;;;;19.77;6.40;;;13.20;99.90;;;13.32;71.53;102263.84;5089768;28;20047;-71
2023/05/02 05:17:50;;;;;;;20.83;7.22;;;13.10;99.90;;;13.30;72.31;102274.47;5097899;28;20089;-72
2023/05/02 05:20:20;;;;;;;26.38;7.03;;;13.10;99.90;;;13.23;72.15;102272.66;5097595;28;20074;-72
2023/05/02 05:22:51;;;;;;;21.65;7.00;;;13.10;99.90;;;13.13;72.18;102276.13;5090376;28;20044;-71
2023/05/02 05:25:20;;;;;;;23.27;7.30;;;12.90;99.90;;;13.03;72.30;102275.97;5094146;28;20043;-72
2023/05/02 05:27:52;;;;;;;23.25;6.10;;;12.80;99.90;;;13.05;72.22;102272.50;5097652;28;20046;-72
2023/05/02 05:30:21;;;;;;;18.02;6.55;;;12.80;99.90;;;13.07;72.00;102276.06;5097434;28;20374;-72
2023/05/02 05:32:49;;;;;;;22.27;6.95;;;12.80;99.90;;;13.04;71.58;102281.38;5115934;28;20040;-72
2023/05/02 05:35:18;;;;;;;18.30;6.60;;;12.80;99.90;;;13.05;71.63;102287.53;5089319;28;20047;-72
2023/05/02 05:37:48;;;;;;;18.95;7.35;;;12.80;99.90;;;13.11;71.51;102299.13;5097435;28;20058;-72
2023/05/02 05:40:18;;;;;;;25.50;6.93;;;12.80;99.90;;;13.13;71.71;102308.00;5114334;28;20121;-72
2023/05/02 05:42:51;;;;;;;24.75;6.45;;;12.80;99.90;;;13.10;70.90;102313.31;5112274;28;20108;-72
2023/05/02 05:45:25;;;;;;;20.38;6.88;;;12.80;99.90;;;13.18;70.48;102311.56;5097337;28;20063;-72
2023/05/02 05:47:54;;;;;;;18.55;7.38;;;12.90;99.90;;;13.17;70.10;102311.56;5088859;28;20056;-72
2023/05/02 05:50:25;;;;;;;15.50;6.55;;;13.00;99.90;;;13.05;69.79;102319.44;5097135;28;20474;-72
2023/05/02 05:52:55;;;;;;;18.83;7.25;;;12.80;99.90;;;12.98;69.46;102315.81;5085522;28;20064;-72
2023/05/02 05:55:24;;;;;;;23.55;6.78;;;12.80;99.90;;;13.07;69.39;102321.22;5093234;28;20048;-72
2023/05/02 05:57:52;;;;;;;17.65;6.60;;;12.80;99.90;;;13.12;69.52;102327.50;5093123;28;20055;-71
2023/05/02 06:00:20;;;;;;;18.02;7.05;;;12.90;99.90;;;13.19;69.45;102336.38;5096990;28;20369;-72
2023/05/02 06:02:52;;;;;;;14.27;6.95;;;12.90;99.90;;;13.21;68.93;102337.28;5097050;28;20050;-71
2023/05/02 06:05:30;;;;;;;19.67;6.55;;;13.00;99.90;;;13.13;68.88;102312.41;5096961;28;20496;-72
2023/05/02 06:08:00;;;;;;;20.70;6.85;;;13.10;99.90;;;13.42;68.81;102356.97;5096917;28;20039;-71
2023/05/02 06:10:28;;;;;;;19.98;6.88;;;13.10;99.90;;;13.45;68.21;102346.34;5111240;28;20439;-72
2023/05/02 06:12:57;;;;;;;15.93;6.72;;;13.20;99.90;;;13.47;67.74;102349.91;5096661;28;20044;-71
2023/05/02 06:15:33;;;;;;;19.00;6.40;;;13.30;99.90;;;13.42;67.01;102354.31;5088447;28;20047;-71
2023/05/02 06:18:02;;;;;;;16.40;6.55;;;13.20;99.90;;;13.49;66.78;102355.25;5096703;28;20138;-71
2023/05/02 06:20:30;;;;;;;20.23;6.03;;;13.20;99.90;;;13.50;66.32;102365.88;5114910;28;20048;-71
2023/05/02 06:23:01;;;;;;;13.90;5.80;;;13.20;99.90;;;13.57;65.70;102375.69;5093232;28;20158;-72
2023/05/02 06:25:29;;;;;;;17.42;6.32;;;13.30;99.90;;;13.55;65.56;102371.22;5114843;28;20093;-71
2023/05/02 06:27:57;;;;;;;14.55;6.10;;;13.30;99.90;;;13.55;64.88;102374.78;5110760;28;20046;-72
2023/05/02 06:30:25;;;;;;;18.20;6.10;;;13.30;99.90;;;13.48;63.96;102380.94;5114364;28;20053;-71
2023/05/02 06:32:54;;;;;;;19.00;5.55;;;13.30;99.90;;;13.45;63.92;102388.88;5114442;28;20113;-72
2023/05/02 06:35:22;;;;;;;13.98;5.72;;;13.20;99.90;;;13.39;63.75;102388.81;5114926;28;20108;-71
2023/05/02 06:37:50;;;;;;;15.60;5.63;;;13.20;99.90;;;13.34;64.13;102395.88;5114813;28;20043;-71
2023/05/02 06:40:20;;;;;;;18.30;6.18;;;13.10;99.90;;;13.43;63.63;102395.06;5114229;28;20039;-71
2023/05/02 06:42:48;;;;;;;14.53;5.70;;;13.20;99.90;;;13.48;63.77;102399.53;5114536;28;20048;-72
2023/05/02 06:45:17;;;;;;;13.68;5.90;;;13.20;99.90;;;13.38;63.58;102384.38;5114148;28;20039;-72
2023/05/02 06:47:45;;;;;;;16.13;5.80;;;13.20;99.90;;;13.53;63.80;102408.44;5114308;28;20438;-73
2023/05/02 06:50:14;;;;;;;15.57;5.78;;;13.20;99.90;;;13.52;62.99;102408.44;5114026;28;20074;-70
2023/05/02 06:52:42;;;;;;;20.23;6.70;;;13.30;99.90;;;13.60;63.62;102417.38;5109993;28;20035;-72
2023/05/02 06:55:11;;;;;;;17.63;5.72;;;13.30;99.90;;;13.68;62.83;102413.00;5095818;28;20067;-72
2023/05/02 06:57:42;;;;;;;14.65;6.40;;;13.40;99.90;;;13.82;63.12;102418.41;5113912;28;20052;-71
2023/05/02 07:00:12;;;;;;;17.20;6.22;;;13.50;99.90;;;13.79;63.52;102391.78;5114557;28;20054;-71
2023/05/02 07:02:41;;;;;;;13.85;6.03;;;13.70;99.90;;;14.00;63.09;102423.84;5113979;28;20066;-73
2023/05/02 07:05:10;;;;;;;17.85;5.53;;;13.70;99.90;;;13.98;62.35;102420.28;5113895;28;20503;-73
2023/05/02 07:07:38;;;;;;;16.67;6.55;;;13.70;99.90;;;14.07;61.79;102417.72;5113719;28;20134;-69
2023/05/02 07:10:08;;;;;;;14.02;5.78;;;13.80;99.90;;;14.24;61.96;102416.03;5113609;28;20043;-72
2023/05/02 07:12:37;;;;;;;14.60;5.45;;;14.00;99.90;;;14.40;61.23;102426.78;5109573;28;20039;-73
2023/05/02 07:15:09;;;;;;;13.05;5.88;;;14.10;99.90;;;14.47;60.30;102411.72;5110022;28;20109;-73
2023/05/02 07:17:37;;;;;;;12.95;5.75;;;14.30;99.90;;;14.59;58.98;102422.44;5095571;28;20467;-71
2023/05/02 07:20:08;;;;;;;21.02;6.32;;;14.40;99.90;;;14.61;58.86;102433.09;5113386;28;20050;-74
2023/05/02 07:22:37;;;;;;;12.38;5.40;;;14.30;99.90;;;14.52;58.32;102430.41;5113498;28;20036;-73
2023/05/02 07:25:06;;;;;;;14.98;5.25;;;14.30;99.90;;;14.48;58.26;102429.47;5113349;28;20055;-71
2023/05/02 07:27:35;;;;;;;13.88;5.40;;;14.20;99.90;;;14.37;58.68;102440.09;5113309;28;20089;-70
2023/05/02 07:30:06;;;;;;;18.52;6.10;;;14.20;99.90;;;14.26;58.90;102448.88;5113530;28;20043;-72
2023/05/02 07:32:35;;;;;;;14.35;5.57;;;14.00;99.90;;;14.30;59.09;102443.56;5113303;28;20153;-70
2023/05/02 07:35:04;;;;;;;18.48;5.78;;;14.00;99.90;;;14.29;59.06;102451.56;5113271;28;20089;-69
2023/05/02 07:37:34;;;;;;;13.05;5.55;;;14.00;99.90;;;14.30;59.23;102450.69;5113207;28;20492;-75
2023/05/02 07:40:03;;;;;;;13.45;5.70;;;14.00;99.90;;;14.33;59.56;102466.69;5087145;28;20055;-70
2023/05/02 07:42:32;;;;;;;15.05;6.30;;;14.10;99.90;;;14.36;59.21;102464.91;5112817;28;20078;-68
2023/05/02 07:45:00;;;;;;;15.75;6.07;;;14.10;99.90;;;14.27;59.20;102469.25;5113335;28;20049;-69
2023/05/02 07:47:30;;;;;;;13.75;6.55;;;14.10;99.90;;;14.36;58.58;102472.03;5113008;28;20047;-71
2023/05/02 07:49:58;;;;;;;11.48;5.57;;;14.10;99.90;;;14.26;58.04;102473.72;5113491;28;20107;-70
2023/05/02 07:52:27;;;;;;;18.48;6.05;;;14.10;99.90;;;14.25;57.48;102471.91;5113285;28;20049;-69
2023/05/02 07:54:56;;;;;;;15.85;5.43;;;14.00;99.90;;;14.34;57.64;102482.66;5112962;28;20553;-63
2023/05/02 07:57:24;;;;;;;13.85;5.55;;;14.10;99.90;;;14.48;57.48;102482.72;5112915;28;20092;-70
2023/05/02 07:59:55;;;;;;;14.70;5.53;;;14.20;99.90;;;14.48;56.83;102472.97;5094894;28;20070;-71
2023/05/02 08:02:24;;;;;;;13.50;5.72;;;14.30;99.90;;;14.56;56.27;102477.44;5112908;28;20051;-69
2023/05/02 08:04:55;;;;;;;11.80;5.22;;;14.30;99.90;;;14.59;56.73;102478.38;5113469;28;20531;-71
2023/05/02 08:07:23;;;;;;;12.65;5.88;;;14.40;99.90;;;14.59;56.67;102490.78;5113062;28;20070;-71
2023/05/02 08:09:51;;;;;;;11.18;5.15;;;14.30;99.90;;;14.67;56.00;102483.72;5112784;28;20042;-71
2023/05/02 08:12:20;;;;;;;12.32;4.88;;;14.40;99.90;;;14.71;54.42;102491.72;5112661;28;20082;-72
2023/05/02 08:14:48;;;;;;;14.65;5.15;;;14.50;99.90;;;14.41;54.03;102480.94;5109523;28;20043;-68
2023/05/02 08:17:16;;;;;;;11.35;5.20;;;14.30;99.90;;;13.51;53.77;102398.69;5112974;28;20074;-68
2023/05/02 08:19:45;;;;;;;12.63;5.00;;;13.90;99.90;;;14.25;53.68;102487.91;5112712;28;20147;-68
2023/05/02 08:22:15;;;;;;;10.02;4.90;;;14.00;99.90;;;14.41;52.94;102507.56;5112575;28;20097;-68
2023/05/02 08:24:43;;;;;;;11.60;4.78;;;14.20;99.90;;;14.28;52.74;102489.72;5086612;28;20032;-69
2023/05/02 08:27:11;;;;;;;9.73;5.22;;;14.10;99.90;;;14.55;52.50;102497.88;5112522;28;20430;-69
2023/05/02 08:29:40;;;;;;;12.10;4.85;;;14.30;99.90;;;14.75;51.37;102501.50;5112639;28;20408;-69
2023/05/02 08:32:08;;;;;;;9.60;4.80;;;14.50;99.90;;;15.02;51.64;102496.28;5112562;28;20369;-69
2023/05/02 08:34:37;;;;;;;8.10;4.68;;;14.80;99.90;;;15.12;50.75;102510.53;5112551;28;20441;-69
2023/05/02 08:37:08;;;;;;;13.43;5.32;;;14.90;99.90;;;15.37;50.68;102515.97;5112808;28;20048;-69
2023/05/02 08:39:38;;;;;;;11.60;5.45;;;15.10;99.90;;;15.45;49.42;102507.13;5109293;28;20055;-71
2023/05/02 08:42:07;;;;;;;8.93;4.32;;;15.20;99.90;;;15.74;48.90;102521.38;5112388;28;20035;-69
2023/05/02 08:44:37;;;;;;;7.93;4.38;;;15.50;99.90;;;15.87;47.61;102532.06;5112474;28;20138;-69
2023/05/02 08:47:06;;;;;;;9.50;4.70;;;15.60;99.90;;;15.90;47.02;102534.75;5112627;28;20044;-68
2023/05/02 08:49:36;;;;;;;10.50;4.75;;;15.70;99.90;;;15.96;46.47;102536.53;5112968;28;20039;-68
2023/05/02 08:52:06;;;;;;;8.23;4.57;;;15.70;99.90;;;16.01;47.57;102527.63;5112692;28;20070;-68
2023/05/02 08:54:38;;;;;;;7.22;4.05;;;15.80;99.90;;;16.00;46.42;102533.88;5112477;28;20067;-69
2023/05/02 08:57:07;;;;;;;5.25;4.18;;;15.80;99.90;;;15.93;45.71;102528.53;5109090;28;20126;-69
2023/05/02 08:59:36;;;;;;;9.90;4.50;;;15.80;99.90;;;16.30;47.08;102532.94;5112881;28;20054;-69
2023/05/02 09:02:12;;;;;;;10.52;4.25;;;16.00;99.90;;;16.24;45.65;102506.22;5112792;28;20048;-69
2023/05/02 09:04:43;;;;;;;8.45;4.38;;;16.10;99.90;;;16.44;45.90;102530.25;5111994;28;20097;-69
2023/05/02 09:07:11;;;;;;;9.63;4.70;;;16.20;99.90;;;16.35;45.03;102523.16;5112864;28;20036;-69
2023/05/02 09:09:41;;;;;;;10.10;4.57;;;16.20;99.90;;;16.58;44.89;102548.06;5108680;28;20066;-70
2023/05/02 09:12:09;;;;;;;8.32;4.72;;;16.40;99.90;;;16.70;44.81;102549.81;5112375;28;20058;-70
2023/05/02 09:14:38;;;;;;;10.50;4.80;;;16.50;99.90;;;16.83;45.10;102552.47;5088051;28;20056;-69
2023/05/02 09:17:06;;;;;;;10.65;4.80;;;16.60;99.90;;;16.95;44.72;102544.41;5115885;28;20100;-69
2023/05/02 09:19:35;;;;;;;5.45;4.20;;;16.70;99.90;;;16.45;43.93;102527.59;5116112;28;20044;-69
2023/05/02 09:22:03;;;;;;;8.88;4.32;;;16.50;99.90;;;16.49;44.00;102540.06;5116060;28;20047;-69
2023/05/02 09:24:31;;;;;;;8.02;4.75;;;16.30;99.90;;;16.55;45.58;102540.06;5115789;28;20035;-69
2023/05/02 09:27:03;;;;;;;10.13;4.97;;;16.30;99.90;;;16.73;44.94;102549.81;5115867;28;20385;-69
2023/05/02 09:29:36;;;;;;;8.90;4.40;;;16.50;99.90;;;16.88;44.81;102547.97;5115719;28;20104;-69
2023/05/02 09:32:06;;;;;;;9.88;4.95;;;16.60;99.90;;;16.99;44.02;102526.56;5112458;28;20043;-69
2023/05/02 09:34:36;;;;;;;8.02;4.97;;;16.90;99.90;;;17.14;43.61;102559.47;5097627;28;20086;-69
2023/05/02 09:37:05;;;;;;;9.65;4.85;;;16.90;99.90;;;17.28;42.81;102572.78;5097671;28;20048;-69
2023/05/02 09:39:33;;;;;;;9.98;4.85;;;17.00;99.90;;;17.46;43.82;102572.69;5097544;28;20463;-69
2023/05/02 09:42:03;;;;;;;10.15;4.88;;;17.20;99.90;;;17.60;42.78;102570.84;5115482;28;20511;-70
2023/05/02 09:44:38;;;;;;;9.13;4.88;;;17.40;99.90;;;17.25;41.70;102562.09;5115460;28;20046;-69
2023/05/02 09:47:08;;;;;;;9.07;5.07;;;17.20;99.90;;;17.56;43.49;102569.09;5111926;28;20039;-69
2023/05/02 09:49:41;;;;;;;10.40;4.72;;;17.30;99.90;;;17.55;42.84;102579.81;5115698;28;20082;-69
2023/05/02 09:52:15;;;;;;;11.43;4.95;;;17.30;99.90;;;17.41;43.01;102586.97;5097220;28;20048;-69
2023/05/02 09:54:45;;;;;;;11.50;5.00;;;17.30;99.90;;;17.26;42.84;102584.38;5115219;28;20036;-70
2023/05/02 09:57:15;;;;;;;11.45;4.68;;;17.20;99.90;;;16.14;45.11;102572.09;5111116;28;20050;-70
2023/05/02 09:59:55;;;;;;;9.05;4.65;;;16.10;99.90;;;15.60;45.27;102565.84;5111485;28;20047;-69
2023/05/02 10:02:25;;;;;;;13.50;5.45;;;15.60;99.90;;;15.48;46.20;102584.47;5115371;28;20057;-69
2023/05/02 10:04:57;;;;;;;8.15;5.53;;;15.20;99.90;;;15.81;46.97;102581.88;5115119;28;20075;-69
2023/05/02 10:07:26;;;;;;;9.60;4.47;;;15.50;99.90;;;16.04;46.12;102575.69;5111074;28;20039;-69
2023/05/02 10:09:58;;;;;;;9.68;5.47;;;15.80;99.90;;;15.67;46.78;102575.63;5111314;28;20044;-69
2023/05/02 10:12:30;;;;;;;9.93;4.65;;;15.50;99.90;;;15.87;47.18;102580.09;5114861;28;20468;-69
2023/05/02 10:15:04;;;;;;;9.00;5.45;;;15.60;99.90;;;15.88;46.70;102583.66;5114941;28;20500;-69
2023/05/02 10:17:41;;;;;;;13.30;5.38;;;15.60;99.90;;;16.34;47.56;102588.13;5115339;28;20061;-69
2023/05/02 10:20:15;;;;;;;12.68;5.35;;;16.00;99.90;;;16.65;46.82;102592.59;5112244;28;20040;-69
2023/05/02 10:22:45;;;;;;;8.30;5.38;;;16.30;99.90;;;16.94;45.74;102585.38;5096860;28;20060;-69